Terminal Aerodrome Forecast
Issued by NWS

Home | Current Version | Previous Version | Text Only | Print | Product List | Glossary On
Versions: 1 2 3 4 5 6 7 8 9 10 11 12 13 14 15 16 17 18 19 20
000
FTUS43 KIND 161100
TAFHUF
TAF
KHUF 161120Z 1612/1712 36009KT P6SM OVC015
     FM161500 02007KT P6SM BKN020
     FM161900 02003KT P6SM SCT020 BKN040
     FM170100 04003KT P6SM FEW040
     FM170900 00000KT 3SM BR SCT250=

USA.gov is the U.S. government's official web portal to all federal, state and local government web resources and services.